Aktion National Airport

Airport
ICAO code: 
LGPZ
IATA Code: 
PVK
Summary
ICAO Region: 
EUR
Territory: 
Location: 
Preveza, Epirus
Serving: 
Preveza
Elevation: 
11 ft
Coordinates: 
Aerial View: 
38° 55' 25.86" N, 20° 46' 6.312" E
Metar
Observation
LGPZ 281750Z 24007KT 7000 RA SCT025 BKN080 15/14 Q1005
Station
Aktion Airport
Date/Time
2021-11-28 17:50:00
Wind direction
240°
Wind speed
07 kts
Lowest cloud amount
scattered clouds
Temperature
15°C
Dew point
14°C
Humidity
93%
QNH
1005 hPa
Weather condition
n/a

Aktion National Airport is a civil/military airport serving Preveza and Lefkada in Greece.

Climatology

Warm mediterranean climate (Köppen climate classification Csa)

Runways

Designator Length Width Surface Rops
07L/25R 2871 45 ASP No/No
Airport map: 
Aerial View: 

SKYbrary Partners:

Safety knowledge contributed by: